Time;durP1;ratioP1;P1;durP2;ratioP2;P2;SDS_P1;SDS_P2;PMS_P1;PMS_P2;Temp;Humidity;BMP_temperature;BMP_pressure;BME280_temperature;BME280_humidity;BME280_pressure;Samples;Min_cycle;Max_cycle;Signal;HPM_P1;HPM_P2
2022/04/08 00:00:42;;;;;;;10.95;1.90;;;5.80;99.90;;;;;;5040043;28;20044;-90
2022/04/08 00:03:09;;;;;;;8.00;1.80;;;5.80;99.90;;;;;;5042361;28;20049;-91
2022/04/08 00:05:35;;;;;;;6.40;1.80;;;5.80;99.90;;;;;;5042033;28;20093;-89
2022/04/08 00:08:01;;;;;;;7.95;1.70;;;5.80;99.90;;;;;;5059074;28;20028;-89
2022/04/08 00:10:26;;;;;;;8.25;1.85;;;5.70;99.90;;;;;;5041290;28;20399;-90
2022/04/08 00:12:52;;;;;;;8.93;1.85;;;5.60;99.90;;;;;;5043268;28;20052;-90
2022/04/08 00:15:18;;;;;;;5.35;1.45;;;5.60;99.90;;;;;;5044453;28;20641;-90
2022/04/08 00:17:47;;;;;;;6.13;0.90;;;5.40;99.90;;;;;;5041909;28;20173;-89
2022/04/08 00:20:13;;;;;;;5.65;1.23;;;5.30;99.90;;;;;;5040669;28;20076;-90
2022/04/08 00:22:42;;;;;;;3.00;0.85;;;5.30;99.90;;;;;;5059036;28;20083;-90
2022/04/08 00:25:11;;;;;;;6.15;1.10;;;5.20;99.90;;;;;;5058527;28;20222;-91
2022/04/08 00:27:38;;;;;;;2.45;1.08;;;5.30;99.90;;;;;;5042793;28;20042;-90
2022/04/08 00:30:05;;;;;;;3.80;1.08;;;5.30;99.90;;;;;;5041207;28;20476;-90
2022/04/08 00:32:33;;;;;;;2.60;0.75;;;5.30;99.90;;;;;;5041715;28;20040;-90
2022/04/08 00:34:59;;;;;;;3.42;1.10;;;5.30;99.90;;;;;;5041659;28;20040;-90
2022/04/08 00:37:25;;;;;;;3.45;0.65;;;5.30;99.90;;;;;;5042141;28;20047;-90
2022/04/08 00:39:51;;;;;;;1.52;0.50;;;5.20;99.90;;;;;;5042996;28;20044;-89
2022/04/08 00:42:19;;;;;;;1.75;0.73;;;5.10;99.90;;;;;;5045124;28;20059;-89
2022/04/08 00:44:45;;;;;;;2.47;0.70;;;4.90;99.90;;;;;;5063173;28;20032;-89
2022/04/08 00:47:11;;;;;;;1.40;0.75;;;4.80;99.90;;;;;;5062568;28;20039;-89
2022/04/08 00:49:38;;;;;;;3.70;0.82;;;4.80;99.90;;;;;;5044711;28;20033;-89
2022/04/08 00:52:04;;;;;;;2.70;0.68;;;4.70;99.90;;;;;;5043024;28;20209;-90
2022/04/08 00:54:31;;;;;;;2.78;0.82;;;4.70;99.90;;;;;;5057438;28;20036;-90
2022/04/08 00:56:57;;;;;;;3.92;0.90;;;4.60;99.90;;;;;;5044664;28;20036;-90
2022/04/08 00:59:27;;;;;;;10.32;1.35;;;4.60;99.90;;;;;;5045469;28;20032;-90
2022/04/08 01:01:56;;;;;;;4.32;1.45;;;4.60;99.90;;;;;;5062175;28;20044;-88
2022/04/08 01:04:23;;;;;;;7.10;1.38;;;4.60;99.90;;;;;;5060509;28;20033;-89
2022/04/08 01:06:49;;;;;;;5.85;1.35;;;4.50;99.90;;;;;;5036375;28;20040;-90
2022/04/08 01:09:16;;;;;;;4.30;1.15;;;4.50;99.90;;;;;;5043973;28;20037;-89
2022/04/08 01:11:43;;;;;;;3.75;1.25;;;4.50;99.90;;;;;;5044234;28;20330;-90
2022/04/08 01:14:13;;;;;;;7.07;1.20;;;4.60;99.90;;;;;;5062165;28;20056;-89
2022/04/08 01:16:39;;;;;;;7.10;1.73;;;4.50;99.90;;;;;;5036330;28;20124;-89
2022/04/08 01:19:07;;;;;;;4.15;1.17;;;4.30;99.90;;;;;;5043938;28;20495;-88
2022/04/08 01:21:33;;;;;;;3.20;1.23;;;4.10;99.90;;;;;;5054670;28;20457;-89
2022/04/08 01:24:01;;;;;;;4.55;1.10;;;3.90;99.90;;;;;;5055652;28;20298;-91
2022/04/08 01:26:27;;;;;;;7.43;1.40;;;3.90;99.90;;;;;;5057051;28;20105;-91
2022/04/08 01:28:54;;;;;;;4.60;0.98;;;3.80;99.90;;;;;;5056780;28;20036;-89
2022/04/08 01:31:20;;;;;;;5.13;1.42;;;3.80;99.90;;;;;;5044132;28;20430;-90
2022/04/08 01:33:46;;;;;;;6.00;2.22;;;3.80;99.90;;;;;;5043970;28;20127;-91
2022/04/08 01:36:12;;;;;;;4.88;1.58;;;3.80;99.90;;;;;;5044056;28;20141;-91
2022/04/08 01:38:37;;;;;;;5.13;1.40;;;3.80;99.90;;;;;;5059935;28;20483;-90
2022/04/08 01:41:03;;;;;;;5.97;1.65;;;3.80;99.90;;;;;;5043401;28;20033;-90
2022/04/08 01:43:29;;;;;;;8.93;1.90;;;3.90;99.90;;;;;;5045931;28;20040;-90
2022/04/08 01:45:55;;;;;;;6.80;1.40;;;3.90;99.90;;;;;;5045661;28;20036;-90
2022/04/08 01:48:21;;;;;;;6.57;1.42;;;3.90;99.90;;;;;;5047106;28;20051;-91
2022/04/08 01:50:46;;;;;;;7.38;1.60;;;3.90;99.90;;;;;;5044077;28;20687;-91
2022/04/08 01:53:16;;;;;;;9.18;1.85;;;3.90;99.90;;;;;;5044099;28;20085;-89
2022/04/08 01:55:42;;;;;;;6.55;1.50;;;3.90;99.90;;;;;;5045118;28;20196;-90
2022/04/08 01:58:08;;;;;;;10.45;1.70;;;3.90;99.90;;;;;;5045785;28;20048;-91
2022/04/08 02:00:34;;;;;;;9.50;1.77;;;3.90;99.90;;;;;;5045561;28;20040;-90
2022/04/08 02:03:00;;;;;;;7.80;1.80;;;3.90;99.90;;;;;;5045031;28;20040;-90
2022/04/08 02:05:26;;;;;;;8.18;1.73;;;3.90;99.90;;;;;;5043080;28;20102;-90
2022/04/08 02:07:55;;;;;;;12.57;2.10;;;3.90;99.90;;;;;;5044027;28;20040;-90
2022/04/08 02:10:21;;;;;;;11.13;1.98;;;3.90;99.90;;;;;;5044320;28;20257;-90
2022/04/08 02:12:47;;;;;;;10.98;2.03;;;3.80;99.90;;;;;;5045062;28;20060;-89
2022/04/08 02:15:13;;;;;;;9.23;2.35;;;3.90;99.90;;;;;;5045419;28;20483;-89
2022/04/08 02:17:38;;;;;;;8.02;2.20;;;3.80;99.90;;;;;;5043878;28;20033;-90
2022/04/08 02:20:05;;;;;;;5.03;1.58;;;3.80;99.90;;;;;;5043363;28;20036;-90
2022/04/08 02:22:31;;;;;;;11.75;2.30;;;3.80;99.90;;;;;;5044540;28;21258;-89
2022/04/08 02:25:01;;;;;;;7.55;1.55;;;3.80;99.90;;;;;;5059808;28;20028;-90
2022/04/08 02:27:28;;;;;;;7.88;1.80;;;3.80;99.90;;;;;;5045137;28;20043;-92
2022/04/08 02:29:58;;;;;;;6.28;1.65;;;3.80;99.90;;;;;;5060882;28;20102;-91
2022/04/08 02:32:27;;;;;;;7.20;1.73;;;3.90;99.90;;;;;;5045447;28;20051;-90
2022/04/08 02:34:54;;;;;;;4.05;1.00;;;4.00;99.90;;;;;;5041934;28;20076;-90
2022/04/08 02:37:20;;;;;;;8.27;1.77;;;4.00;99.90;;;;;;5058090;28;20647;-90
2022/04/08 02:39:46;;;;;;;4.53;1.23;;;3.80;99.90;;;;;;5055340;28;20033;-89
2022/04/08 02:42:11;;;;;;;8.20;1.30;;;3.70;99.90;;;;;;5043779;28;20196;-90
2022/04/08 02:44:37;;;;;;;7.18;1.60;;;3.70;99.90;;;;;;5044577;28;20107;-89
2022/04/08 02:47:03;;;;;;;6.90;1.58;;;3.70;99.90;;;;;;5042977;28;20081;-89
2022/04/08 02:49:29;;;;;;;6.45;1.80;;;3.60;99.90;;;;;;5041668;28;20071;-89
2022/04/08 02:51:55;;;;;;;6.38;1.58;;;3.60;99.90;;;;;;5042046;28;20041;-90
2022/04/08 02:54:21;;;;;;;3.92;1.50;;;3.50;99.90;;;;;;5041908;28;20590;-90
2022/04/08 02:56:46;;;;;;;7.03;1.67;;;3.50;99.90;;;;;;5041207;28;20112;-91
2022/04/08 02:59:12;;;;;;;5.57;1.33;;;3.60;99.90;;;;;;5039928;28;20048;-89
2022/04/08 03:01:38;;;;;;;7.57;1.70;;;3.60;99.90;;;;;;5041595;28;20048;-89
2022/04/08 03:04:06;;;;;;;8.95;1.63;;;3.40;99.90;;;;;;5041540;28;20037;-89
2022/04/08 03:06:35;;;;;;;10.40;1.73;;;3.40;99.90;;;;;;5058466;28;20044;-89
2022/04/08 03:09:03;;;;;;;12.57;1.90;;;3.30;99.90;;;;;;5042732;28;20040;-89
2022/04/08 03:11:29;;;;;;;6.32;1.30;;;3.40;99.90;;;;;;5059411;28;20131;-88
2022/04/08 03:13:59;;;;;;;11.10;1.85;;;3.50;99.90;;;;;;5043684;28;20112;-90
2022/04/08 03:16:25;;;;;;;13.75;1.90;;;3.40;99.90;;;;;;5043706;28;20040;-90
2022/04/08 03:18:51;;;;;;;10.82;1.83;;;3.30;99.90;;;;;;5043124;28;20041;-90
2022/04/08 03:21:17;;;;;;;4.55;1.67;;;3.30;99.90;;;;;;5043904;28;20351;-90
2022/04/08 03:23:43;;;;;;;6.38;2.00;;;3.20;99.90;;;;;;5057626;28;20036;-89
2022/04/08 03:26:09;;;;;;;12.27;1.80;;;3.20;99.90;;;;;;5045148;28;20246;-91
2022/04/08 03:28:35;;;;;;;5.30;2.22;;;3.10;99.90;;;;;;5043358;28;20301;-90
2022/04/08 03:31:01;;;;;;;9.48;2.08;;;3.10;99.90;;;;;;5042991;28;20028;-90
2022/04/08 03:33:27;;;;;;;5.63;2.00;;;3.10;99.90;;;;;;5044655;28;20036;-90
2022/04/08 03:35:53;;;;;;;8.65;1.95;;;3.10;99.90;;;;;;5058426;28;20169;-90
2022/04/08 03:38:19;;;;;;;5.47;1.70;;;3.10;99.90;;;;;;5042558;28;20494;-90
2022/04/08 03:40:47;;;;;;;13.30;1.80;;;3.10;99.90;;;;;;5043450;28;20040;-90
2022/04/08 03:43:12;;;;;;;9.27;1.80;;;3.10;99.90;;;;;;5041997;28;20055;-90
2022/04/08 03:45:38;;;;;;;11.82;2.30;;;3.10;99.90;;;;;;5043057;28;20420;-89
2022/04/08 03:48:04;;;;;;;12.05;2.53;;;3.10;99.90;;;;;;5043814;28;20056;-90
2022/04/08 03:50:30;;;;;;;10.90;1.95;;;3.10;99.90;;;;;;5042393;28;20044;-90
2022/04/08 03:52:55;;;;;;;7.13;2.13;;;3.20;99.90;;;;;;5043330;28;20040;-90
2022/04/08 03:55:24;;;;;;;13.32;2.67;;;3.20;99.90;;;;;;5041390;28;20095;-90
2022/04/08 03:57:50;;;;;;;7.75;1.98;;;3.10;99.90;;;;;;5059602;28;20102;-90
2022/04/08 04:00:16;;;;;;;12.45;2.65;;;3.20;99.90;;;;;;5059528;28;20044;-90
2022/04/08 04:02:42;;;;;;;12.75;2.67;;;3.30;99.90;;;;;;5059838;28;20385;-90
2022/04/08 04:05:08;;;;;;;8.35;1.65;;;3.40;99.90;;;;;;5042757;28;20036;-90
2022/04/08 04:07:34;;;;;;;9.30;1.77;;;3.70;99.90;;;;;;5044389;28;20130;-89
2022/04/08 04:10:00;;;;;;;8.75;2.08;;;4.00;99.90;;;;;;5041468;28;20065;-90
2022/04/08 04:12:29;;;;;;;11.13;2.30;;;4.00;99.90;;;;;;5042241;28;20052;-90
2022/04/08 04:14:55;;;;;;;8.15;1.83;;;3.90;99.90;;;;;;5062009;28;20166;-90
2022/04/08 04:17:22;;;;;;;2.72;1.80;;;3.80;99.90;;;;;;5047151;28;20039;-90
2022/04/08 04:19:48;;;;;;;6.45;1.67;;;3.80;99.90;;;;;;5046658;28;20115;-90
2022/04/08 04:22:14;;;;;;;9.30;1.63;;;3.70;25.30;;;;;;5045302;28;20040;-91
2022/04/08 04:24:39;;;;;;;3.05;1.30;;;3.80;64.40;;;;;;5061035;28;20082;-90
2022/04/08 04:27:08;;;;;;;4.95;1.42;;;3.70;1.00;;;;;;5048860;28;20040;-90
2022/04/08 04:29:34;;;;;;;5.40;1.65;;;3.60;89.00;;;;;;5063645;28;20850;-90
2022/04/08 04:31:59;;;;;;;4.32;1.70;;;3.50;29.70;;;;;;5046819;28;20040;-90
2022/04/08 04:34:26;;;;;;;4.53;1.42;;;3.50;13.60;;;;;;5046707;28;20072;-90
2022/04/08 04:36:52;;;;;;;5.00;1.70;;;3.40;90.00;;;;;;5040119;28;20293;-90
2022/04/08 04:39:18;;;;;;;4.25;1.30;;;3.30;53.50;;;;;;5045862;28;20072;-89
2022/04/08 04:41:44;;;;;;;2.80;1.60;;;3.20;30.00;;;;;;5059722;28;20084;-91
2022/04/08 04:44:10;;;;;;;2.95;1.38;;;3.10;76.10;;;;;;5061909;28;20047;-91
2022/04/08 04:46:36;;;;;;;2.40;1.38;;;3.20;25.80;;;;;;5046560;28;20032;-91
2022/04/08 04:49:02;;;;;;;4.85;1.40;;;3.20;28.60;;;;;;5046420;28;20040;-90
2022/04/08 04:51:30;;;;;;;3.30;1.50;;;3.10;72.00;;;;;;5046282;28;20100;-90
2022/04/08 04:53:57;;;;;;;3.75;1.40;;;3.30;99.90;;;;;;5044638;28;20079;-90
2022/04/08 04:56:23;;;;;;;6.18;1.55;;;3.30;1.00;;;;;;5045193;28;20072;-89
2022/04/08 04:58:49;;;;;;;5.18;1.60;;;3.50;99.90;;;;;;5045677;28;20072;-90
2022/04/08 05:01:15;;;;;;;4.70;1.40;;;3.50;1.00;;;;;;5045364;28;20075;-90
2022/04/08 05:03:41;;;;;;;4.15;1.67;;;3.40;1.00;;;;;;5045448;28;20047;-92
2022/04/08 05:06:07;;;;;;;4.43;1.50;;;3.40;85.20;;;;;;5045574;28;20036;-90
2022/04/08 05:08:32;;;;;;;9.00;1.92;;;3.40;99.90;;;;;;5044870;28;20102;-90
2022/04/08 05:10:58;;;;;;;6.15;1.50;;;3.40;50.60;;;;;;5046529;28;20067;-90
2022/04/08 05:13:26;;;;;;;2.05;1.58;;;3.40;93.00;;;;;;5063264;28;20605;-91
2022/04/08 05:15:52;;;;;;;4.95;1.58;;;3.40;99.90;;;;;;5046304;28;20037;-90
2022/04/08 05:18:18;;;;;;;4.15;1.70;;;3.40;99.90;;;;;;5046599;28;20068;-89
2022/04/08 05:20:44;;;;;;;3.88;1.70;;;3.40;99.90;;;;;;5041281;28;20079;-91
2022/04/08 05:23:09;;;;;;;4.53;1.90;;;3.50;99.90;;;;;;5045135;28;20037;-91
2022/04/08 05:25:35;;;;;;;2.67;1.70;;;3.50;99.90;;;;;;5043317;28;20037;-90
2022/04/08 05:28:01;;;;;;;5.30;1.80;;;3.40;99.90;;;;;;5057786;28;20041;-89
2022/04/08 05:30:27;;;;;;;4.15;1.70;;;3.50;99.90;;;;;;5040372;28;20040;-90
2022/04/08 05:32:54;;;;;;;6.70;1.80;;;3.60;99.90;;;;;;5045688;28;20456;-91
2022/04/08 05:35:20;;;;;;;3.97;1.40;;;3.70;99.90;;;;;;5059660;28;20060;-89
2022/04/08 05:37:49;;;;;;;1.58;1.27;;;3.70;99.90;;;;;;5045613;28;20047;-90
2022/04/08 05:40:17;;;;;;;4.40;1.67;;;3.70;99.90;;;;;;5043351;28;20503;-90
2022/04/08 05:42:49;;;;;;;6.78;1.80;;;3.80;99.90;;;;;;5044971;28;20309;-91
2022/04/08 05:45:18;;;;;;;3.35;1.95;;;3.90;99.90;;;;;;5040177;28;20454;-91
2022/04/08 05:47:47;;;;;;;6.90;1.83;;;3.90;99.90;;;;;;5044142;28;20075;-90
2022/04/08 05:50:14;;;;;;;6.00;1.80;;;4.00;98.40;;;;;;5044546;28;20031;-90
2022/04/08 05:52:40;;;;;;;5.97;2.03;;;4.00;99.90;;;;;;5044834;28;20193;-90
2022/04/08 05:55:06;;;;;;;7.00;2.08;;;3.90;99.90;;;;;;5043192;28;20047;-90
2022/04/08 05:57:40;;;;;;;4.95;1.90;;;3.90;99.90;;;;;;5044638;28;20040;-90
2022/04/08 06:00:08;;;;;;;4.55;1.77;;;4.00;99.90;;;;;;5059931;28;20048;-91
2022/04/08 06:02:34;;;;;;;3.85;1.70;;;4.00;99.90;;;;;;5043754;28;20037;-90
2022/04/08 06:04:59;;;;;;;7.43;2.00;;;4.10;99.90;;;;;;5060285;28;20044;-90
2022/04/08 06:07:25;;;;;;;4.22;2.00;;;4.10;99.90;;;;;;5043340;28;20044;-91
2022/04/08 06:09:52;;;;;;;5.38;1.83;;;4.10;99.90;;;;;;5057469;28;20140;-90
2022/04/08 06:12:17;;;;;;;7.28;2.17;;;4.20;99.90;;;;;;5044690;28;20048;-90
2022/04/08 06:14:43;;;;;;;7.80;2.20;;;4.10;99.90;;;;;;5046094;28;20102;-90
2022/04/08 06:17:09;;;;;;;6.03;2.30;;;4.20;99.90;;;;;;5044058;28;20503;-91
2022/04/08 06:19:34;;;;;;;5.65;2.03;;;4.20;99.90;;;;;;5045069;28;20040;-90
2022/04/08 06:22:00;;;;;;;6.30;2.03;;;4.30;99.90;;;;;;5043852;28;20086;-90
2022/04/08 06:24:26;;;;;;;4.63;2.17;;;4.30;99.90;;;;;;5043942;28;20039;-90
2022/04/08 06:26:51;;;;;;;4.53;2.17;;;4.40;99.90;;;;;;5061502;28;20036;-90
2022/04/08 06:29:17;;;;;;;6.55;2.20;;;4.40;99.90;;;;;;5044418;28;20041;-90
2022/04/08 06:31:43;;;;;;;7.00;2.60;;;4.40;7.80;;;;;;5044916;28;20024;-91
2022/04/08 06:34:08;;;;;;;8.15;2.08;;;4.50;92.50;;;;;;5044533;28;20044;-90
2022/04/08 06:36:34;;;;;;;4.53;2.05;;;4.60;97.80;;;;;;5058575;28;20038;-89
2022/04/08 06:39:00;;;;;;;4.75;2.00;;;4.60;99.90;;;;;;5042563;28;20041;-90
2022/04/08 06:41:25;;;;;;;6.70;2.25;;;4.70;99.90;;;;;;5045210;28;20543;-90
2022/04/08 06:43:51;;;;;;;4.30;2.20;;;4.80;99.90;;;;;;5044553;28;20077;-90
2022/04/08 06:46:21;;;;;;;3.42;1.90;;;4.90;1.00;;;;;;5043969;28;20507;-90
2022/04/08 06:48:47;;;;;;;4.45;1.98;;;4.90;99.90;;;;;;5043938;28;20078;-90
2022/04/08 06:51:13;;;;;;;4.95;1.95;;;5.00;1.00;;;;;;5042422;28;20066;-89
2022/04/08 06:53:38;;;;;;;3.97;2.17;;;5.00;1.00;;;;;;5041841;28;20056;-89
2022/04/08 06:56:04;;;;;;;4.75;2.42;;;5.10;1.00;;;;;;5058550;28;20040;-90
2022/04/08 06:58:31;;;;;;;5.55;2.53;;;5.10;1.00;;;;;;5042598;28;20056;-89
2022/04/08 07:00:57;;;;;;;4.18;2.03;;;5.20;1.00;;;;;;5045050;28;20124;-89
2022/04/08 07:03:23;;;;;;;4.82;2.17;;;5.30;27.20;;;;;;5043314;28;20040;-90
2022/04/08 07:05:52;;;;;;;8.65;2.42;;;5.40;1.00;;;;;;5043162;28;20045;-89
2022/04/08 07:08:17;;;;;;;3.67;2.40;;;5.50;13.10;;;;;;5059307;28;20032;-90
2022/04/08 07:10:43;;;;;;;7.30;2.50;;;5.70;18.40;;;;;;5042956;28;20102;-91
2022/04/08 07:13:09;;;;;;;5.93;2.20;;;5.70;1.80;;;;;;5060674;28;20114;-89
2022/04/08 07:15:34;;;;;;;8.10;2.08;;;5.70;99.90;;;;;;5043803;28;20068;-89
2022/04/08 07:18:03;;;;;;;8.45;1.90;;;5.80;1.00;;;;;;5043723;28;20380;-91
2022/04/08 07:20:29;;;;;;;3.78;2.00;;;5.90;99.90;;;;;;5043779;28;20071;-89
2022/04/08 07:22:55;;;;;;;5.15;2.33;;;6.10;36.20;;;;;;5043113;28;20780;-89
2022/04/08 07:25:20;;;;;;;4.90;2.20;;;6.30;99.90;;;;;;5058931;28;20041;-90
2022/04/08 07:27:48;;;;;;;7.18;2.47;;;6.00;1.00;;;;;;5041528;28;20044;-90
2022/04/08 07:30:17;;;;;;;4.43;1.80;;;5.80;1.00;;;;;;5043148;28;20025;-89
2022/04/08 07:32:44;;;;;;;4.15;1.70;;;5.70;99.90;;;;;;5043760;28;20040;-90
2022/04/08 07:35:10;;;;;;;5.00;2.17;;;5.80;99.90;;;;;;5041895;28;20147;-90
2022/04/08 07:37:36;;;;;;;3.33;1.85;;;5.80;99.90;;;;;;5039854;28;20039;-90
2022/04/08 07:40:06;;;;;;;3.15;1.73;;;5.90;99.90;;;;;;5057686;28;20044;-91
2022/04/08 07:42:35;;;;;;;4.82;1.80;;;6.10;99.90;;;;;;5073743;28;20083;-90
2022/04/08 07:45:02;;;;;;;3.80;1.75;;;6.20;99.90;;;;;;5060177;28;20036;-89
2022/04/08 07:47:28;;;;;;;7.28;2.05;;;6.30;99.90;;;;;;5043441;28;20032;-90
2022/04/08 07:50:05;;;;;;;7.18;1.80;;;6.40;1.00;;;;;;5046236;28;20040;-90
2022/04/08 07:52:31;;;;;;;4.40;1.70;;;6.70;99.90;;;;;;5064044;28;20478;-89
2022/04/08 07:54:57;;;;;;;7.43;2.13;;;7.00;99.90;;;;;;5045752;28;20076;-89
2022/04/08 07:57:23;;;;;;;6.53;1.95;;;6.90;99.90;;;;;;5062725;28;20046;-89
2022/04/08 07:59:49;;;;;;;6.97;1.95;;;6.80;99.90;;;;;;5045389;28;20508;-89
2022/04/08 08:02:15;;;;;;;5.07;2.03;;;6.90;99.90;;;;;;5045450;28;20114;-91
2022/04/08 08:04:44;;;;;;;5.47;1.83;;;7.00;1.00;;;;;;5045862;28;20036;-88
2022/04/08 08:07:10;;;;;;;5.43;1.73;;;7.20;99.90;;;;;;5045680;28;20486;-90
2022/04/08 08:09:36;;;;;;;6.30;1.58;;;7.10;1.00;;;;;;5040437;28;20120;-89
2022/04/08 08:12:03;;;;;;;3.20;1.60;;;6.90;99.90;;;;;;5045244;28;20186;-91
2022/04/08 08:14:29;;;;;;;3.10;1.58;;;6.70;1.00;;;;;;5045768;28;20036;-89
2022/04/08 08:16:55;;;;;;;4.80;1.70;;;6.90;1.00;;;;;;5061677;28;20051;-90
2022/04/08 08:19:23;;;;;;;3.75;2.00;;;6.90;99.90;;;;;;5045316;28;20036;-91
2022/04/08 08:21:49;;;;;;;5.07;2.10;;;6.90;99.90;;;;;;5044640;28;20037;-90
2022/04/08 08:24:15;;;;;;;5.25;2.10;;;7.20;5.70;;;;;;5044603;28;20047;-89
2022/04/08 08:26:41;;;;;;;5.72;2.17;;;7.20;1.00;;;;;;5061198;28;20392;-89
2022/04/08 08:29:06;;;;;;;6.18;2.08;;;7.20;99.90;;;;;;5047454;28;20088;-90
2022/04/08 08:31:32;;;;;;;4.47;1.92;;;7.20;1.00;;;;;;5046028;28;20033;-89
2022/04/08 08:33:58;;;;;;;4.35;2.10;;;7.30;99.90;;;;;;5061797;28;20051;-90
2022/04/08 08:36:24;;;;;;;5.47;1.95;;;7.60;94.40;;;;;;5044677;28;20490;-90
2022/04/08 08:38:49;;;;;;;5.72;2.00;;;7.80;1.00;;;;;;5042093;28;20052;-89
2022/04/08 08:41:18;;;;;;;6.88;2.10;;;8.00;99.90;;;;;;5044541;28;20412;-89
2022/04/08 08:43:45;;;;;;;6.20;1.70;;;8.10;1.00;;;;;;5045225;28;20111;-90
2022/04/08 08:46:12;;;;;;;7.97;1.70;;;8.10;99.90;;;;;;5041635;28;20472;-88
2022/04/08 08:48:38;;;;;;;6.70;2.22;;;8.40;99.90;;;;;;5043430;28;20129;-89
2022/04/08 08:51:06;;;;;;;5.43;1.63;;;8.20;99.90;;;;;;5044673;28;20033;-89
2022/04/08 08:53:35;;;;;;;5.78;1.60;;;8.10;99.90;;;;;;5044068;28;20067;-89
2022/04/08 08:56:03;;;;;;;4.65;1.52;;;8.00;99.90;;;;;;5043873;28;20033;-88
2022/04/08 08:58:29;;;;;;;4.95;2.00;;;8.20;99.90;;;;;;5063379;28;20037;-88
2022/04/08 09:00:56;;;;;;;4.22;1.75;;;8.00;99.90;;;;;;5045147;28;20040;-90
2022/04/08 09:03:28;;;;;;;4.03;1.48;;;8.00;99.90;;;;;;5045074;28;20148;-90
2022/04/08 09:05:54;;;;;;;4.18;1.10;;;8.00;99.90;;;;;;5045031;28;20482;-90
2022/04/08 09:08:20;;;;;;;4.25;1.65;;;7.90;99.90;;;;;;5046389;28;20199;-89
2022/04/08 09:10:51;;;;;;;2.03;1.10;;;8.30;99.90;;;;;;5045573;28;20123;-89
2022/04/08 09:13:20;;;;;;;3.70;1.35;;;8.10;99.90;;;;;;5063507;28;20520;-88
2022/04/08 09:15:55;;;;;;;5.03;1.20;;;8.00;99.90;;;;;;5045357;28;20044;-88
2022/04/08 09:18:21;;;;;;;3.53;1.48;;;7.90;99.90;;;;;;5043544;28;20507;-89
2022/04/08 09:20:49;;;;;;;2.70;1.02;;;8.10;99.90;;;;;;5043475;28;20042;-89
2022/04/08 09:23:17;;;;;;;4.55;1.50;;;8.40;99.90;;;;;;5043162;28;20115;-88
2022/04/08 09:25:43;;;;;;;4.25;1.17;;;8.50;99.90;;;;;;5042015;28;20577;-88
2022/04/08 09:28:11;;;;;;;3.20;1.50;;;8.70;99.90;;;;;;5041920;28;20551;-89
2022/04/08 09:30:38;;;;;;;5.53;1.40;;;9.30;99.90;;;;;;5064161;28;20470;-89
2022/04/08 09:33:22;;;;;;;5.80;1.75;;;9.70;99.90;;;;;;5045086;28;20037;-90
2022/04/08 09:35:50;;;;;;;7.20;1.40;;;9.30;99.90;;;;;;5059479;28;20044;-88
2022/04/08 09:38:21;;;;;;;2.65;1.25;;;8.90;99.90;;;;;;5060024;28;20156;-88
2022/04/08 09:40:49;;;;;;;3.85;1.40;;;8.70;99.90;;;;;;5043311;28;20135;-91
2022/04/08 09:43:16;;;;;;;5.90;1.75;;;8.30;99.90;;;;;;5042964;28;20037;-90
2022/04/08 09:45:43;;;;;;;5.65;1.77;;;8.30;99.90;;;;;;5058919;28;20118;-89
2022/04/08 09:48:09;;;;;;;5.50;1.63;;;8.30;99.90;;;;;;5042986;28;20313;-89
2022/04/08 09:50:37;;;;;;;5.13;1.50;;;8.20;99.90;;;;;;5044755;28;20068;-89
2022/04/08 09:53:04;;;;;;;4.68;1.80;;;8.20;99.90;;;;;;5043541;28;20094;-88
2022/04/08 09:55:30;;;;;;;6.95;2.17;;;8.10;99.90;;;;;;5041524;28;20044;-88
2022/04/08 09:58:03;;;;;;;3.30;1.33;;;8.70;99.90;;;;;;5061226;28;20043;-90
2022/04/08 10:00:31;;;;;;;4.28;1.30;;;8.90;99.90;;;;;;5046371;28;20079;-89
2022/04/08 10:03:01;;;;;;;8.02;1.42;;;9.10;99.90;;;;;;5042540;28;20360;-88
2022/04/08 10:05:27;;;;;;;5.10;1.38;;;9.60;99.90;;;;;;5044987;28;20206;-89
2022/04/08 10:07:55;;;;;;;4.40;1.85;;;9.60;99.90;;;;;;5045699;28;20044;-89
2022/04/08 10:10:48;;;;;;;6.63;1.42;;;9.60;99.90;;;;;;5075189;28;20617;-88
2022/04/08 10:13:22;;;;;;;3.35;1.40;;;9.70;99.90;;;;;;5042236;28;20097;-89
2022/04/08 10:16:14;;;;;;;4.78;1.60;;;9.60;62.70;;;;;;5043357;28;20052;-88
2022/04/08 10:18:41;;;;;;;2.80;1.10;;;9.80;60.90;;;;;;5039564;28;20075;-90
2022/04/08 10:21:08;;;;;;;7.38;1.58;;;9.80;27.80;;;;;;5043675;28;20124;-90
2022/04/08 10:23:39;;;;;;;3.22;1.25;;;10.00;33.10;;;;;;5042790;28;20044;-89
2022/04/08 10:26:06;;;;;;;6.55;1.50;;;9.70;1.00;;;;;;5042735;28;20047;-88
2022/04/08 10:28:36;;;;;;;5.57;1.35;;;9.80;41.60;;;;;;5042837;28;20183;-90
2022/04/08 10:31:13;;;;;;;6.63;1.83;;;10.00;89.20;;;;;;5042811;28;20388;-90
2022/04/08 10:33:46;;;;;;;5.97;1.40;;;10.10;64.80;;;;;;5061425;28;20498;-88
2022/04/08 10:36:11;;;;;;;4.57;1.30;;;10.20;1.00;;;;;;5041705;28;20040;-88
2022/04/08 10:38:38;;;;;;;3.17;1.20;;;10.10;1.00;;;;;;5059624;28;20110;-90
2022/04/08 10:41:08;;;;;;;3.70;1.20;;;9.90;9.10;;;;;;5042791;28;20024;-88
2022/04/08 10:43:52;;;;;;;6.00;1.83;;;9.70;38.80;;;;;;5060612;28;20531;-90
2022/04/08 10:46:29;;;;;;;4.45;1.23;;;9.30;1.00;;;;;;5042741;28;20036;-89
2022/04/08 10:48:57;;;;;;;6.93;1.40;;;9.20;1.00;;;;;;5042377;28;20412;-89
2022/04/08 10:51:23;;;;;;;4.45;1.25;;;9.20;1.00;;;;;;5042693;28;20040;-88
2022/04/08 10:53:49;;;;;;;2.75;1.30;;;9.30;14.10;;;;;;5041541;28;20036;-88
2022/04/08 10:56:15;;;;;;;2.53;1.33;;;9.20;26.10;;;;;;5032959;28;20428;-89
2022/04/08 10:58:48;;;;;;;2.40;0.98;;;9.10;1.00;;;;;;5058659;28;20475;-89
2022/04/08 11:01:16;;;;;;;3.75;1.23;;;9.70;27.30;;;;;;5058794;28;20610;-89
2022/04/08 11:03:45;;;;;;;5.32;1.10;;;9.80;1.00;;;;;;5059097;28;20040;-89
2022/04/08 11:06:14;;;;;;;4.82;1.50;;;9.60;1.00;;;;;;5040903;28;20029;-89
2022/04/08 11:08:40;;;;;;;3.55;1.33;;;9.50;1.00;;;;;;5037670;28;20043;-89
2022/04/08 11:11:08;;;;;;;4.82;1.48;;;10.10;96.30;;;;;;5042131;28;20057;-87
2022/04/08 11:13:34;;;;;;;4.90;1.30;;;10.50;99.90;;;;;;5060392;28;20085;-90
2022/04/08 11:16:00;;;;;;;7.95;1.70;;;10.30;1.00;;;;;;5058904;28;20032;-88
2022/04/08 11:18:26;;;;;;;3.55;1.45;;;10.20;90.90;;;;;;5060782;28;20137;-88
2022/04/08 11:20:51;;;;;;;6.85;1.50;;;9.40;99.90;;;;;;5058578;28;20119;-88
2022/04/08 11:23:26;;;;;;;2.72;1.30;;;8.90;99.90;;;;;;5039439;28;20040;-88
2022/04/08 11:25:52;;;;;;;3.08;1.17;;;8.30;99.90;;;;;;5056896;28;20033;-88
2022/04/08 11:28:21;;;;;;;3.53;1.05;;;8.10;99.90;;;;;;5059258;28;20045;-88
2022/04/08 11:30:54;;;;;;;6.72;1.55;;;8.10;99.90;;;;;;5040736;28;20457;-88
2022/04/08 11:33:20;;;;;;;2.85;1.55;;;8.10;99.90;;;;;;5043666;28;20079;-89
2022/04/08 11:35:47;;;;;;;3.92;1.60;;;7.80;1.00;;;;;;5058675;28;20845;-90
2022/04/08 11:38:18;;;;;;;4.95;2.05;;;7.50;1.00;;;;;;5058479;28;20492;-90
2022/04/08 11:40:45;;;;;;;5.32;1.25;;;7.80;99.90;;;;;;5058534;28;20596;-88
2022/04/08 11:43:18;;;;;;;3.47;1.10;;;7.60;99.90;;;;;;5040163;28;20041;-90
2022/04/08 11:45:49;;;;;;;1.95;1.00;;;7.60;99.90;;;;;;5043515;28;20088;-89
2022/04/08 11:48:20;;;;;;;4.30;1.10;;;7.80;99.90;;;;;;5058184;28;20380;-89
2022/04/08 11:50:47;;;;;;;5.78;1.55;;;7.90;99.90;;;;;;5043106;28;20468;-88
2022/04/08 11:53:18;;;;;;;5.13;1.42;;;7.90;99.90;;;;;;5043589;28;20043;-89
2022/04/08 11:55:54;;;;;;;2.00;1.10;;;8.30;99.90;;;;;;5040958;28;20243;-88
2022/04/08 11:58:20;;;;;;;4.82;1.67;;;8.50;99.90;;;;;;5058440;28;20049;-89
2022/04/08 12:00:50;;;;;;;5.25;1.45;;;9.00;99.90;;;;;;5058533;28;20328;-89
2022/04/08 12:03:21;;;;;;;7.68;1.38;;;9.30;99.90;;;;;;5061030;28;20247;-89
2022/04/08 12:05:48;;;;;;;4.47;1.50;;;9.50;99.90;;;;;;5059819;28;20036;-88
2022/04/08 12:08:14;;;;;;;4.32;1.30;;;9.70;99.90;;;;;;5060330;28;20052;-88
2022/04/08 12:10:40;;;;;;;5.03;1.83;;;9.70;42.60;;;;;;5058883;28;20049;-89
2022/04/08 12:13:18;;;;;;;7.07;1.58;;;9.80;55.10;;;;;;5041638;28;20066;-89
2022/04/08 12:15:47;;;;;;;4.95;1.40;;;10.00;60.60;;;;;;5057294;28;20133;-89
2022/04/08 12:18:23;;;;;;;5.20;1.45;;;9.80;99.90;;;;;;5059606;28;20053;-89
2022/04/08 12:21:06;;;;;;;4.18;1.35;;;9.80;94.60;;;;;;5041488;28;20431;-89
2022/04/08 12:23:32;;;;;;;4.03;1.50;;;9.50;91.50;;;;;;5056962;28;20037;-89
2022/04/08 12:26:00;;;;;;;3.88;1.35;;;9.00;73.00;;;;;;5042246;28;20515;-90
2022/04/08 12:28:29;;;;;;;5.40;1.52;;;9.00;95.20;;;;;;5042617;28;20577;-89
2022/04/08 12:30:55;;;;;;;3.72;1.52;;;9.50;99.90;;;;;;5042044;28;20125;-89
2022/04/08 12:33:21;;;;;;;5.57;1.23;;;10.00;99.90;;;;;;5042450;28;20573;-90
2022/04/08 12:35:48;;;;;;;3.78;1.02;;;9.90;1.00;;;;;;5062292;28;20251;-89
2022/04/08 12:38:19;;;;;;;6.53;1.30;;;10.30;1.00;;;;;;5045372;28;20382;-89
2022/04/08 12:40:46;;;;;;;5.05;2.05;;;10.10;1.00;;;;;;5040310;28;20175;-89
2022/04/08 12:43:12;;;;;;;6.40;1.02;;;10.00;1.00;;;;;;5046462;28;20398;-89
2022/04/08 12:45:38;;;;;;;6.38;1.00;;;10.20;1.00;;;;;;5046336;28;20032;-90
2022/04/08 12:48:04;;;;;;;3.58;1.00;;;10.30;1.00;;;;;;5046307;28;20206;-89
2022/04/08 12:50:32;;;;;;;4.07;1.00;;;10.40;1.00;;;;;;5061071;28;20556;-90
2022/04/08 12:52:58;;;;;;;3.65;1.50;;;10.20;1.00;;;;;;5056864;28;20171;-88
2022/04/08 12:55:24;;;;;;;3.70;1.27;;;10.20;1.00;;;;;;5040492;28;20047;-88
2022/04/08 12:57:50;;;;;;;7.15;1.48;;;10.70;1.00;;;;;;5043212;28;20132;-90